sensor_id;sensor_type;location;lat;lon;timestamp;pressure;altitude;pressure_sealevel;temperature;humidity
43804;BME280;29430;52.924;-2.388;2023-05-21T00:03:18;100146.28;;;11.80;62.03
43804;BME280;29430;52.924;-2.388;2023-05-21T00:08:11;100143.59;;;11.67;62.19
43804;BME280;29430;52.924;-2.388;2023-05-21T00:13:04;100145.91;;;11.57;62.63
43804;BME280;29430;52.924;-2.388;2023-05-21T00:17:56;100135.72;;;11.45;62.95
43804;BME280;29430;52.924;-2.388;2023-05-21T00:22:47;100138.47;;;11.39;63.12
43804;BME280;29430;52.924;-2.388;2023-05-21T00:27:39;100146.00;;;11.30;63.10
43804;BME280;29430;52.924;-2.388;2023-05-21T00:32:33;100150.41;;;11.18;64.01
43804;BME280;29430;52.924;-2.388;2023-05-21T00:37:24;100147.91;;;11.09;63.72
43804;BME280;29430;52.924;-2.388;2023-05-21T00:42:16;100148.97;;;11.02;64.00
43804;BME280;29430;52.924;-2.388;2023-05-21T00:47:08;100141.22;;;10.92;64.23
43804;BME280;29430;52.924;-2.388;2023-05-21T00:52:00;100133.31;;;10.84;65.06
43804;BME280;29430;52.924;-2.388;2023-05-21T00:56:52;100133.31;;;10.77;65.79
43804;BME280;29430;52.924;-2.388;2023-05-21T01:01:44;100129.56;;;10.65;66.15
43804;BME280;29430;52.924;-2.388;2023-05-21T01:06:36;100131.22;;;10.59;66.52
43804;BME280;29430;52.924;-2.388;2023-05-21T01:11:39;100130.41;;;10.52;66.61
43804;BME280;29430;52.924;-2.388;2023-05-21T01:16:31;100122.22;;;10.45;67.19
43804;BME280;29430;52.924;-2.388;2023-05-21T01:21:24;100123.06;;;10.39;67.04
43804;BME280;29430;52.924;-2.388;2023-05-21T01:26:16;100108.00;;;10.30;67.22
43804;BME280;29430;52.924;-2.388;2023-05-21T01:31:25;100113.63;;;10.28;67.02
43804;BME280;29430;52.924;-2.388;2023-05-21T01:36:22;100104.88;;;10.26;66.79
43804;BME280;29430;52.924;-2.388;2023-05-21T01:41:17;100101.97;;;10.28;66.89
43804;BME280;29430;52.924;-2.388;2023-05-21T01:46:10;100108.66;;;10.32;65.86
43804;BME280;29430;52.924;-2.388;2023-05-21T01:51:04;100105.34;;;10.36;65.35
43804;BME280;29430;52.924;-2.388;2023-05-21T01:55:57;100100.13;;;10.42;64.20
43804;BME280;29430;52.924;-2.388;2023-05-21T02:00:49;100089.91;;;10.44;63.74
43804;BME280;29430;52.924;-2.388;2023-05-21T02:05:44;100091.59;;;10.45;63.21
43804;BME280;29430;52.924;-2.388;2023-05-21T02:10:36;100096.19;;;10.44;63.01
43804;BME280;29430;52.924;-2.388;2023-05-21T02:15:27;100094.28;;;10.45;62.80
43804;BME280;29430;52.924;-2.388;2023-05-21T02:20:20;100092.41;;;10.45;62.52
43804;BME280;29430;52.924;-2.388;2023-05-21T02:25:14;100084.69;;;10.42;62.23
43804;BME280;29430;52.924;-2.388;2023-05-21T02:30:10;100099.50;;;10.39;62.57
43804;BME280;29430;52.924;-2.388;2023-05-21T02:35:03;100087.41;;;10.35;62.82
43804;BME280;29430;52.924;-2.388;2023-05-21T02:39:55;100087.16;;;10.30;63.68
43804;BME280;29430;52.924;-2.388;2023-05-21T02:44:46;100093.22;;;10.26;63.90
43804;BME280;29430;52.924;-2.388;2023-05-21T02:49:38;100092.97;;;10.20;64.07
43804;BME280;29430;52.924;-2.388;2023-05-21T02:54:30;100089.44;;;10.13;64.64
43804;BME280;29430;52.924;-2.388;2023-05-21T02:59:22;100081.28;;;10.07;65.73
43804;BME280;29430;52.924;-2.388;2023-05-21T03:04:14;100088.78;;;9.98;66.07
43804;BME280;29430;52.924;-2.388;2023-05-21T03:09:07;100090.63;;;9.91;66.39
43804;BME280;29430;52.924;-2.388;2023-05-21T03:13:59;100084.13;;;9.85;67.02
43804;BME280;29430;52.924;-2.388;2023-05-21T03:18:51;100082.63;;;9.69;68.09
43804;BME280;29430;52.924;-2.388;2023-05-21T03:23:42;100067.19;;;9.56;68.42
43804;BME280;29430;52.924;-2.388;2023-05-21T03:28:34;100064.22;;;9.51;68.96
43804;BME280;29430;52.924;-2.388;2023-05-21T03:33:26;100052.34;;;9.45;68.82
43804;BME280;29430;52.924;-2.388;2023-05-21T03:38:17;100046.88;;;9.39;69.44
43804;BME280;29430;52.924;-2.388;2023-05-21T03:43:09;100055.78;;;9.26;70.35
43804;BME280;29430;52.924;-2.388;2023-05-21T03:48:01;100055.31;;;9.16;70.61
43804;BME280;29430;52.924;-2.388;2023-05-21T03:52:52;100042.97;;;9.06;70.71
43804;BME280;29430;52.924;-2.388;2023-05-21T03:57:44;100052.34;;;9.04;71.04
43804;BME280;29430;52.924;-2.388;2023-05-21T04:02:36;100050.06;;;9.01;71.50
43804;BME280;29430;52.924;-2.388;2023-05-21T04:07:32;100059.59;;;8.96;72.49
43804;BME280;29430;52.924;-2.388;2023-05-21T04:12:24;100051.44;;;8.90;72.52
43804;BME280;29430;52.924;-2.388;2023-05-21T04:17:15;100053.50;;;8.88;72.93
43804;BME280;29430;52.924;-2.388;2023-05-21T04:22:09;100048.94;;;8.88;73.45
43804;BME280;29430;52.924;-2.388;2023-05-21T04:27:00;100042.66;;;8.88;73.62
43804;BME280;29430;52.924;-2.388;2023-05-21T04:31:52;100042.47;;;8.89;73.42
43804;BME280;29430;52.924;-2.388;2023-05-21T04:36:44;100040.41;;;8.91;73.63
43804;BME280;29430;52.924;-2.388;2023-05-21T04:41:39;100038.25;;;9.15;73.85
43804;BME280;29430;52.924;-2.388;2023-05-21T04:46:31;100040.53;;;9.60;72.70
43804;BME280;29430;52.924;-2.388;2023-05-21T04:51:23;100042.72;;;10.04;70.81
43804;BME280;29430;52.924;-2.388;2023-05-21T04:56:17;100038.19;;;10.38;67.88
43804;BME280;29430;52.924;-2.388;2023-05-21T05:01:09;100044.00;;;10.42;66.58
43804;BME280;29430;52.924;-2.388;2023-05-21T05:06:01;100046.31;;;10.59;67.63
43804;BME280;29430;52.924;-2.388;2023-05-21T05:10:54;100041.84;;;10.98;65.91
43804;BME280;29430;52.924;-2.388;2023-05-21T05:15:46;100043.03;;;11.28;63.92
43804;BME280;29430;52.924;-2.388;2023-05-21T05:20:41;100045.88;;;11.47;63.18
43804;BME280;29430;52.924;-2.388;2023-05-21T05:25:33;100041.00;;;11.62;62.54
43804;BME280;29430;52.924;-2.388;2023-05-21T05:30:24;100042.28;;;11.98;62.75
43804;BME280;29430;52.924;-2.388;2023-05-21T05:35:16;100037.06;;;12.54;61.84
43804;BME280;29430;52.924;-2.388;2023-05-21T05:40:08;100046.38;;;13.27;59.79
43804;BME280;29430;52.924;-2.388;2023-05-21T05:44:59;100043.59;;;13.52;56.63
43804;BME280;29430;52.924;-2.388;2023-05-21T05:49:51;100046.84;;;13.42;55.37
43804;BME280;29430;52.924;-2.388;2023-05-21T05:54:43;100048.13;;;13.40;54.96
43804;BME280;29430;52.924;-2.388;2023-05-21T05:59:34;100055.16;;;13.48;54.13
43804;BME280;29430;52.924;-2.388;2023-05-21T06:04:26;100058.06;;;13.83;53.88
43804;BME280;29430;52.924;-2.388;2023-05-21T06:09:20;100067.25;;;14.43;51.67
43804;BME280;29430;52.924;-2.388;2023-05-21T06:14:12;100063.63;;;15.08;49.79
43804;BME280;29430;52.924;-2.388;2023-05-21T06:19:04;100068.50;;;15.70;48.25
43804;BME280;29430;52.924;-2.388;2023-05-21T06:23:56;100075.22;;;16.37;47.36
43804;BME280;29430;52.924;-2.388;2023-05-21T06:28:48;100077.22;;;16.93;45.49
43804;BME280;29430;52.924;-2.388;2023-05-21T06:33:40;100075.84;;;17.51;43.80
43804;BME280;29430;52.924;-2.388;2023-05-21T06:38:32;100070.25;;;18.13;44.73
43804;BME280;29430;52.924;-2.388;2023-05-21T06:43:24;100081.16;;;18.62;40.85
43804;BME280;29430;52.924;-2.388;2023-05-21T06:48:15;100082.47;;;18.87;40.97
43804;BME280;29430;52.924;-2.388;2023-05-21T06:53:08;100087.19;;;19.44;41.61
43804;BME280;29430;52.924;-2.388;2023-05-21T06:57:59;100086.06;;;19.88;39.56
43804;BME280;29430;52.924;-2.388;2023-05-21T07:02:51;100075.94;;;20.14;36.96
43804;BME280;29430;52.924;-2.388;2023-05-21T07:07:43;100078.94;;;20.18;36.49
43804;BME280;29430;52.924;-2.388;2023-05-21T07:17:26;100075.72;;;20.67;35.96
43804;BME280;29430;52.924;-2.388;2023-05-21T07:22:18;100078.97;;;21.00;35.61
43804;BME280;29430;52.924;-2.388;2023-05-21T07:27:09;100073.97;;;21.18;35.40
43804;BME280;29430;52.924;-2.388;2023-05-21T07:32:15;100084.13;;;21.43;35.03
43804;BME280;29430;52.924;-2.388;2023-05-21T07:37:07;100085.19;;;21.57;33.98
43804;BME280;29430;52.924;-2.388;2023-05-21T07:41:59;100085.50;;;22.06;34.39
43804;BME280;29430;52.924;-2.388;2023-05-21T07:46:50;100074.03;;;22.33;34.42
43804;BME280;29430;52.924;-2.388;2023-05-21T07:51:43;100080.34;;;22.73;33.92
43804;BME280;29430;52.924;-2.388;2023-05-21T07:56:34;100078.69;;;23.31;34.04
43804;BME280;29430;52.924;-2.388;2023-05-21T08:01:27;100089.56;;;23.46;31.06
43804;BME280;29430;52.924;-2.388;2023-05-21T08:06:20;100083.72;;;23.72;31.56
43804;BME280;29430;52.924;-2.388;2023-05-21T08:11:12;100080.03;;;24.39;31.03
43804;BME280;29430;52.924;-2.388;2023-05-21T08:16:04;100071.03;;;24.66;30.20
43804;BME280;29430;52.924;-2.388;2023-05-21T08:20:56;100082.72;;;24.96;29.69
43804;BME280;29430;52.924;-2.388;2023-05-21T08:25:49;100073.03;;;25.54;30.69
43804;BME280;29430;52.924;-2.388;2023-05-21T08:30:40;100068.13;;;26.38;28.41
43804;BME280;29430;52.924;-2.388;2023-05-21T08:35:32;100071.91;;;26.42;26.74
43804;BME280;29430;52.924;-2.388;2023-05-21T08:40:24;100063.41;;;26.02;25.62
43804;BME280;29430;52.924;-2.388;2023-05-21T08:45:19;100065.56;;;26.05;28.67
43804;BME280;29430;52.924;-2.388;2023-05-21T08:50:16;100057.00;;;26.15;27.43
43804;BME280;29430;52.924;-2.388;2023-05-21T08:55:11;100053.72;;;25.99;27.92
43804;BME280;29430;52.924;-2.388;2023-05-21T09:00:03;100058.06;;;25.78;27.87
43804;BME280;29430;52.924;-2.388;2023-05-21T09:04:57;100054.59;;;25.72;26.99
43804;BME280;29430;52.924;-2.388;2023-05-21T09:09:54;100055.25;;;25.41;26.58
43804;BME280;29430;52.924;-2.388;2023-05-21T09:14:48;100046.47;;;25.62;26.59
43804;BME280;29430;52.924;-2.388;2023-05-21T09:25:04;100046.47;;;25.62;26.07
43804;BME280;29430;52.924;-2.388;2023-05-21T09:29:58;100038.66;;;25.36;26.71
43804;BME280;29430;52.924;-2.388;2023-05-21T09:34:49;100046.59;;;25.43;26.73
43804;BME280;29430;52.924;-2.388;2023-05-21T09:39:41;100040.47;;;25.68;25.83
43804;BME280;29430;52.924;-2.388;2023-05-21T09:44:36;100040.38;;;25.73;26.03
43804;BME280;29430;52.924;-2.388;2023-05-21T09:49:28;100040.59;;;25.63;26.42
43804;BME280;29430;52.924;-2.388;2023-05-21T09:54:21;100028.47;;;25.59;26.52
43804;BME280;29430;52.924;-2.388;2023-05-21T09:59:13;100030.13;;;25.60;26.19
43804;BME280;29430;52.924;-2.388;2023-05-21T10:04:06;100023.22;;;25.58;28.15
43804;BME280;29430;52.924;-2.388;2023-05-21T10:09:00;100022.91;;;26.09;26.66
43804;BME280;29430;52.924;-2.388;2023-05-21T10:14:19;100005.44;;;26.63;29.86
43804;BME280;29430;52.924;-2.388;2023-05-21T10:19:12;100013.19;;;26.97;28.98
43804;BME280;29430;52.924;-2.388;2023-05-21T10:24:05;100007.16;;;27.53;28.72
43804;BME280;29430;52.924;-2.388;2023-05-21T10:28:59;100005.59;;;28.13;28.24
43804;BME280;29430;52.924;-2.388;2023-05-21T10:33:53;100000.03;;;28.13;26.14
43804;BME280;29430;52.924;-2.388;2023-05-21T10:38:45;100013.41;;;27.67;25.86
43804;BME280;29430;52.924;-2.388;2023-05-21T10:44:39;99999.63;;;27.62;26.93
43804;BME280;29430;52.924;-2.388;2023-05-21T10:59:41;99989.91;;;28.73;26.09
43804;BME280;29430;52.924;-2.388;2023-05-21T11:04:33;99978.22;;;28.80;26.49
43804;BME280;29430;52.924;-2.388;2023-05-21T11:09:30;99982.63;;;27.99;26.50
43804;BME280;29430;52.924;-2.388;2023-05-21T11:19:17;99972.13;;;27.87;29.81
43804;BME280;29430;52.924;-2.388;2023-05-21T11:24:17;99974.06;;;28.13;28.46
43804;BME280;29430;52.924;-2.388;2023-05-21T11:29:10;99960.41;;;28.37;28.50
43804;BME280;29430;52.924;-2.388;2023-05-21T11:39:12;99969.81;;;28.24;27.15
43804;BME280;29430;52.924;-2.388;2023-05-21T11:44:07;99959.81;;;28.14;28.70
43804;BME280;29430;52.924;-2.388;2023-05-21T11:48:59;99958.13;;;28.39;28.23
43804;BME280;29430;52.924;-2.388;2023-05-21T11:53:51;99964.72;;;28.17;27.21
43804;BME280;29430;52.924;-2.388;2023-05-21T11:58:43;99954.91;;;27.76;29.36
43804;BME280;29430;52.924;-2.388;2023-05-21T12:03:35;99955.06;;;27.89;29.65
43804;BME280;29430;52.924;-2.388;2023-05-21T12:08:27;99956.03;;;27.93;26.30
43804;BME280;29430;52.924;-2.388;2023-05-21T12:13:19;99951.59;;;27.83;28.76
43804;BME280;29430;52.924;-2.388;2023-05-21T12:18:14;99952.66;;;27.21;27.11
43804;BME280;29430;52.924;-2.388;2023-05-21T12:23:06;99945.97;;;26.50;28.93
43804;BME280;29430;52.924;-2.388;2023-05-21T12:27:58;99934.69;;;26.55;30.58
43804;BME280;29430;52.924;-2.388;2023-05-21T12:32:52;99935.22;;;26.57;31.29
43804;BME280;29430;52.924;-2.388;2023-05-21T12:37:43;99938.03;;;26.66;31.26
43804;BME280;29430;52.924;-2.388;2023-05-21T12:42:35;99927.81;;;26.53;26.85
43804;BME280;29430;52.924;-2.388;2023-05-21T12:47:29;99927.00;;;25.98;28.61
43804;BME280;29430;52.924;-2.388;2023-05-21T12:52:21;99936.69;;;25.64;28.45
43804;BME280;29430;52.924;-2.388;2023-05-21T12:57:17;99929.16;;;25.00;28.59
43804;BME280;29430;52.924;-2.388;2023-05-21T13:02:12;99932.66;;;24.64;29.73
43804;BME280;29430;52.924;-2.388;2023-05-21T13:07:04;99925.63;;;24.53;27.93
43804;BME280;29430;52.924;-2.388;2023-05-21T13:11:56;99945.59;;;24.22;26.73
43804;BME280;29430;52.924;-2.388;2023-05-21T13:16:47;99936.34;;;23.94;25.49
43804;BME280;29430;52.924;-2.388;2023-05-21T13:21:39;99927.75;;;23.57;27.34
43804;BME280;29430;52.924;-2.388;2023-05-21T13:26:31;99931.25;;;23.25;27.11
43804;BME280;29430;52.924;-2.388;2023-05-21T13:31:22;99928.41;;;23.06;27.36
43804;BME280;29430;52.924;-2.388;2023-05-21T13:36:14;99927.38;;;23.02;27.37
43804;BME280;29430;52.924;-2.388;2023-05-21T13:41:06;99923.47;;;23.03;27.34
43804;BME280;29430;52.924;-2.388;2023-05-21T13:45:58;99914.91;;;22.80;28.35
43804;BME280;29430;52.924;-2.388;2023-05-21T13:50:49;99924.25;;;22.60;27.43
43804;BME280;29430;52.924;-2.388;2023-05-21T13:55:41;99915.84;;;22.41;28.21
43804;BME280;29430;52.924;-2.388;2023-05-21T14:00:33;99914.03;;;22.31;27.50
43804;BME280;29430;52.924;-2.388;2023-05-21T14:05:25;99906.59;;;22.27;26.95
43804;BME280;29430;52.924;-2.388;2023-05-21T14:10:16;99900.03;;;22.17;26.33
43804;BME280;29430;52.924;-2.388;2023-05-21T14:15:08;99908.47;;;22.02;26.90
43804;BME280;29430;52.924;-2.388;2023-05-21T14:20:01;99899.72;;;21.90;27.48
43804;BME280;29430;52.924;-2.388;2023-05-21T14:24:53;99899.19;;;21.88;26.26
43804;BME280;29430;52.924;-2.388;2023-05-21T14:29:44;99897.91;;;21.75;26.12
43804;BME280;29430;52.924;-2.388;2023-05-21T14:34:36;99892.13;;;21.71;26.30
43804;BME280;29430;52.924;-2.388;2023-05-21T14:39:28;99889.13;;;21.68;25.86
43804;BME280;29430;52.924;-2.388;2023-05-21T14:44:20;99880.69;;;21.54;25.14
43804;BME280;29430;52.924;-2.388;2023-05-21T14:49:12;99881.53;;;21.49;23.87
43804;BME280;29430;52.924;-2.388;2023-05-21T14:54:05;99884.03;;;21.51;25.38
43804;BME280;29430;52.924;-2.388;2023-05-21T14:58:56;99883.44;;;21.54;26.82
43804;BME280;29430;52.924;-2.388;2023-05-21T15:03:48;99872.72;;;21.42;24.92
43804;BME280;29430;52.924;-2.388;2023-05-21T15:08:40;99894.56;;;21.38;26.84
43804;BME280;29430;52.924;-2.388;2023-05-21T15:13:32;99868.38;;;21.31;27.45
43804;BME280;29430;52.924;-2.388;2023-05-21T15:18:23;99865.91;;;21.29;27.69
43804;BME280;29430;52.924;-2.388;2023-05-21T15:23:15;99868.69;;;21.24;27.47
43804;BME280;29430;52.924;-2.388;2023-05-21T15:28:08;99871.44;;;21.29;28.76
43804;BME280;29430;52.924;-2.388;2023-05-21T15:33:00;99867.81;;;21.28;28.46
43804;BME280;29430;52.924;-2.388;2023-05-21T15:37:52;99853.56;;;21.21;28.72
43804;BME280;29430;52.924;-2.388;2023-05-21T15:42:43;99862.09;;;21.20;29.50
43804;BME280;29430;52.924;-2.388;2023-05-21T15:47:35;99851.66;;;21.17;29.95
43804;BME280;29430;52.924;-2.388;2023-05-21T15:52:27;99852.69;;;21.21;30.71
43804;BME280;29430;52.924;-2.388;2023-05-21T15:57:18;99849.41;;;21.19;30.84
43804;BME280;29430;52.924;-2.388;2023-05-21T16:02:10;99850.28;;;21.14;30.89
43804;BME280;29430;52.924;-2.388;2023-05-21T16:07:02;99855.81;;;21.09;30.94
43804;BME280;29430;52.924;-2.388;2023-05-21T16:11:53;99856.72;;;20.99;31.36
43804;BME280;29430;52.924;-2.388;2023-05-21T16:16:46;99847.97;;;20.87;32.41
43804;BME280;29430;52.924;-2.388;2023-05-21T16:21:37;99847.97;;;20.87;32.81
43804;BME280;29430;52.924;-2.388;2023-05-21T16:26:29;99843.56;;;20.81;32.83
43804;BME280;29430;52.924;-2.388;2023-05-21T16:31:21;99844.97;;;20.73;32.72
43804;BME280;29430;52.924;-2.388;2023-05-21T16:36:13;99846.09;;;20.72;33.45
43804;BME280;29430;52.924;-2.388;2023-05-21T16:41:07;99846.91;;;20.78;33.88
43804;BME280;29430;52.924;-2.388;2023-05-21T16:45:59;99833.13;;;20.78;33.94
43804;BME280;29430;52.924;-2.388;2023-05-21T16:50:51;99840.00;;;20.75;34.36
43804;BME280;29430;52.924;-2.388;2023-05-21T16:55:42;99844.41;;;20.71;34.26
43804;BME280;29430;52.924;-2.388;2023-05-21T17:00:35;99855.19;;;20.67;34.81
43804;BME280;29430;52.924;-2.388;2023-05-21T17:05:27;99849.97;;;20.61;34.72
43804;BME280;29430;52.924;-2.388;2023-05-21T17:10:19;99845.28;;;20.56;34.32
43804;BME280;29430;52.924;-2.388;2023-05-21T17:15:11;99835.13;;;20.51;34.63
43804;BME280;29430;52.924;-2.388;2023-05-21T17:20:02;99836.22;;;20.50;34.43
43804;BME280;29430;52.924;-2.388;2023-05-21T17:24:54;99839.25;;;20.49;34.29
43804;BME280;29430;52.924;-2.388;2023-05-21T17:29:46;99842.84;;;20.44;33.82
43804;BME280;29430;52.924;-2.388;2023-05-21T17:34:38;99837.38;;;20.39;32.96
43804;BME280;29430;52.924;-2.388;2023-05-21T17:39:29;99838.75;;;20.26;33.89
43804;BME280;29430;52.924;-2.388;2023-05-21T17:44:21;99830.78;;;20.19;34.07
43804;BME280;29430;52.924;-2.388;2023-05-21T17:49:13;99835.47;;;20.19;34.14
43804;BME280;29430;52.924;-2.388;2023-05-21T17:54:05;99831.88;;;20.18;33.84
43804;BME280;29430;52.924;-2.388;2023-05-21T17:58:58;99831.09;;;20.13;34.34
43804;BME280;29430;52.924;-2.388;2023-05-21T18:03:50;99836.59;;;20.08;34.92
43804;BME280;29430;52.924;-2.388;2023-05-21T18:08:41;99830.28;;;20.02;34.97
43804;BME280;29430;52.924;-2.388;2023-05-21T18:13:33;99839.09;;;19.99;35.17
43804;BME280;29430;52.924;-2.388;2023-05-21T18:18:25;99842.13;;;19.92;35.29
43804;BME280;29430;52.924;-2.388;2023-05-21T18:23:16;99842.16;;;19.82;35.60
43804;BME280;29430;52.924;-2.388;2023-05-21T18:28:08;99841.84;;;19.73;36.23
43804;BME280;29430;52.924;-2.388;2023-05-21T18:33:01;99844.31;;;19.70;36.90
43804;BME280;29430;52.924;-2.388;2023-05-21T18:37:52;99850.66;;;19.65;37.41
43804;BME280;29430;52.924;-2.388;2023-05-21T18:42:44;99855.03;;;19.61;37.60
43804;BME280;29430;52.924;-2.388;2023-05-21T18:47:36;99848.16;;;19.53;37.71
43804;BME280;29430;52.924;-2.388;2023-05-21T18:52:29;99855.31;;;19.44;38.01
43804;BME280;29430;52.924;-2.388;2023-05-21T18:57:21;99859.13;;;19.43;39.42
43804;BME280;29430;52.924;-2.388;2023-05-21T19:02:14;99862.16;;;19.36;40.67
43804;BME280;29430;52.924;-2.388;2023-05-21T19:07:06;99865.19;;;19.29;41.32
43804;BME280;29430;52.924;-2.388;2023-05-21T19:11:57;99864.88;;;19.21;41.94
43804;BME280;29430;52.924;-2.388;2023-05-21T19:16:51;99864.31;;;19.13;42.09
43804;BME280;29430;52.924;-2.388;2023-05-21T19:21:43;99867.06;;;19.08;42.48
43804;BME280;29430;52.924;-2.388;2023-05-21T19:26:35;99863.16;;;18.94;42.78
43804;BME280;29430;52.924;-2.388;2023-05-21T19:31:26;99868.34;;;18.85;43.34
43804;BME280;29430;52.924;-2.388;2023-05-21T19:36:19;99875.69;;;18.74;43.82
43804;BME280;29430;52.924;-2.388;2023-05-21T19:41:11;99880.31;;;18.64;43.99
43804;BME280;29430;52.924;-2.388;2023-05-21T19:46:03;99887.41;;;18.54;44.40
43804;BME280;29430;52.924;-2.388;2023-05-21T19:50:54;99898.66;;;18.48;44.81
43804;BME280;29430;52.924;-2.388;2023-05-21T19:55:46;99907.38;;;18.39;47.11
43804;BME280;29430;52.924;-2.388;2023-05-21T20:00:38;99904.84;;;18.28;47.97
43804;BME280;29430;52.924;-2.388;2023-05-21T20:05:30;99914.59;;;18.13;48.72
43804;BME280;29430;52.924;-2.388;2023-05-21T20:10:22;99912.06;;;18.01;50.23
43804;BME280;29430;52.924;-2.388;2023-05-21T20:15:14;99915.53;;;17.92;49.97
43804;BME280;29430;52.924;-2.388;2023-05-21T20:20:06;99921.47;;;17.83;51.14
43804;BME280;29430;52.924;-2.388;2023-05-21T20:25:00;99928.16;;;17.65;51.17
43804;BME280;29430;52.924;-2.388;2023-05-21T20:29:53;99926.94;;;17.51;51.77
43804;BME280;29430;52.924;-2.388;2023-05-21T20:34:44;99938.56;;;17.36;51.98
43804;BME280;29430;52.924;-2.388;2023-05-21T20:39:52;99948.22;;;17.16;51.55
43804;BME280;29430;52.924;-2.388;2023-05-21T20:44:48;99951.91;;;17.05;51.71
43804;BME280;29430;52.924;-2.388;2023-05-21T20:49:39;99957.53;;;16.93;51.95
43804;BME280;29430;52.924;-2.388;2023-05-21T20:54:31;99956.63;;;16.88;51.65
43804;BME280;29430;52.924;-2.388;2023-05-21T20:59:23;99956.19;;;16.79;51.64
43804;BME280;29430;52.924;-2.388;2023-05-21T21:04:17;99957.69;;;16.70;52.34
43804;BME280;29430;52.924;-2.388;2023-05-21T21:09:09;99955.41;;;16.61;52.87
43804;BME280;29430;52.924;-2.388;2023-05-21T21:14:01;99950.50;;;16.46;53.58
43804;BME280;29430;52.924;-2.388;2023-05-21T21:18:53;99953.69;;;16.38;54.06
43804;BME280;29430;52.924;-2.388;2023-05-21T21:23:44;99955.94;;;16.24;54.71
43804;BME280;29430;52.924;-2.388;2023-05-21T21:28:36;99953.28;;;16.13;55.10
43804;BME280;29430;52.924;-2.388;2023-05-21T21:33:28;99960.72;;;16.00;55.57
43804;BME280;29430;52.924;-2.388;2023-05-21T21:38:20;99961.31;;;15.85;55.74
43804;BME280;29430;52.924;-2.388;2023-05-21T21:43:11;99966.31;;;15.76;56.35
43804;BME280;29430;52.924;-2.388;2023-05-21T21:48:03;99965.91;;;15.68;57.30
43804;BME280;29430;52.924;-2.388;2023-05-21T21:52:55;99973.75;;;15.64;57.52
43804;BME280;29430;52.924;-2.388;2023-05-21T21:57:48;99980.94;;;15.53;56.94
43804;BME280;29430;52.924;-2.388;2023-05-21T22:02:41;99970.56;;;15.38;57.46
43804;BME280;29430;52.924;-2.388;2023-05-21T22:07:33;99967.84;;;15.27;57.52
43804;BME280;29430;52.924;-2.388;2023-05-21T22:12:25;99968.59;;;15.10;58.68
43804;BME280;29430;52.924;-2.388;2023-05-21T22:17:17;99971.84;;;14.95;59.10
43804;BME280;29430;52.924;-2.388;2023-05-21T22:22:09;99969.47;;;14.87;59.68
43804;BME280;29430;52.924;-2.388;2023-05-21T22:27:02;99959.16;;;14.77;58.68
43804;BME280;29430;52.924;-2.388;2023-05-21T22:31:54;99961.56;;;14.74;58.58
43804;BME280;29430;52.924;-2.388;2023-05-21T22:36:46;99963.91;;;14.70;58.82
43804;BME280;29430;52.924;-2.388;2023-05-21T22:41:37;99959.41;;;14.64;59.07
43804;BME280;29430;52.924;-2.388;2023-05-21T22:46:29;99968.19;;;14.54;59.32
43804;BME280;29430;52.924;-2.388;2023-05-21T22:51:21;99962.72;;;14.42;59.90
43804;BME280;29430;52.924;-2.388;2023-05-21T22:56:12;99960.00;;;14.30;60.05
43804;BME280;29430;52.924;-2.388;2023-05-21T23:01:04;99955.94;;;14.21;59.99
43804;BME280;29430;52.924;-2.388;2023-05-21T23:05:56;99956.50;;;14.11;60.27
43804;BME280;29430;52.924;-2.388;2023-05-21T23:10:47;99960.19;;;14.05;60.08
43804;BME280;29430;52.924;-2.388;2023-05-21T23:15:39;99963.25;;;13.97;60.68
43804;BME280;29430;52.924;-2.388;2023-05-21T23:20:34;99953.53;;;13.89;61.23
43804;BME280;29430;52.924;-2.388;2023-05-21T23:25:27;99953.88;;;13.81;61.31
43804;BME280;29430;52.924;-2.388;2023-05-21T23:30:19;99953.59;;;13.71;61.69
43804;BME280;29430;52.924;-2.388;2023-05-21T23:35:10;99942.66;;;13.59;62.17
43804;BME280;29430;52.924;-2.388;2023-05-21T23:40:05;99955.78;;;13.50;62.02
43804;BME280;29430;52.924;-2.388;2023-05-21T23:44:57;99938.56;;;13.38;62.51
43804;BME280;29430;52.924;-2.388;2023-05-21T23:49:48;99938.00;;;13.29;63.00
43804;BME280;29430;52.924;-2.388;2023-05-21T23:54:40;99942.34;;;13.18;62.64
43804;BME280;29430;52.924;-2.388;2023-05-21T23:59:32;99935.31;;;13.11;62.88
